Time;durP1;ratioP1;P1;durP2;ratioP2;P2;SDS_P1;SDS_P2;PMS_P1;PMS_P2;Temp;Humidity;BMP_temperature;BMP_pressure;BME280_temperature;BME280_humidity;BME280_pressure;Samples;Min_cycle;Max_cycle;Signal;HPM_P1;HPM_P2
2022/08/16 00:01:07;;;;;;;25.93;2.30;;;;;;;26.07;57.90;98610.16;7314878;19;129264;-38
2022/08/16 00:03:33;;;;;;;31.23;2.87;;;;;;;26.08;58.42;98605.72;7313241;19;128840;-39
2022/08/16 00:05:59;;;;;;;15.07;1.60;;;;;;;26.06;59.13;98603.28;7315304;19;129546;-39
2022/08/16 00:08:25;;;;;;;18.30;1.80;;;;;;;26.06;58.31;98599.81;7312595;19;129169;-40
2022/08/16 00:10:50;;;;;;;26.30;2.40;;;;;;;26.07;58.05;98599.63;7315078;19;128792;-37
2022/08/16 00:13:16;;;;;;;19.23;1.93;;;;;;;26.08;59.08;98611.78;7313770;19;128930;-40
2022/08/16 00:15:46;;;;;;;10.80;1.37;;;;;;;25.69;54.30;98606.19;7314000;19;129214;-38
2022/08/16 00:18:16;;;;;;;14.90;1.50;;;;;;;25.57;54.69;98600.63;7313676;19;129772;-39
2022/08/16 00:20:44;;;;;;;22.77;2.00;;;;;;;25.85;57.15;98602.47;7314286;19;128905;-39
2022/08/16 00:23:10;;;;;;;41.05;3.45;;;;;;;25.93;58.38;98603.16;7312799;19;128855;-39
2022/08/16 00:25:36;;;;;;;6.82;0.93;;;;;;;25.99;58.41;98606.81;7314429;19;129691;-39
2022/08/16 00:28:03;;;;;;;14.77;1.57;;;;;;;26.02;58.43;98601.19;7313855;19;129394;-39
2022/08/16 00:30:28;;;;;;;21.25;1.95;;;;;;;26.02;58.44;98599.41;7313806;19;128918;-37
2022/08/16 00:32:56;;;;;;;38.83;3.30;;;;;;;26.04;58.79;98599.19;7313350;19;129132;-38
2022/08/16 00:35:26;;;;;;;18.30;1.73;;;;;;;26.04;58.28;98609.72;7314123;19;130575;-36
2022/08/16 00:37:51;;;;;;;19.23;2.10;;;;;;;26.04;58.70;98607.94;7314190;19;129627;-37
2022/08/16 00:40:23;;;;;;;22.07;2.40;;;;;;;26.05;59.28;98601.63;7313816;19;129130;-38
2022/08/16 00:42:49;;;;;;;41.72;3.45;;;;;;;26.06;57.96;98608.56;7312780;19;128945;-37
2022/08/16 00:45:32;;;;;;;26.73;2.57;;;;;;;26.07;58.26;98612.81;7314719;19;129620;-37
2022/08/16 00:48:00;;;;;;;16.48;1.88;;;;;;;26.07;58.71;98620.72;7313516;19;129312;-39
2022/08/16 00:50:28;;;;;;;22.45;2.35;;;;;;;26.07;59.21;98625.97;7313161;19;129058;-37
2022/08/16 00:52:54;;;;;;;15.30;1.50;;;;;;;26.06;57.61;98613.81;7311667;19;129176;-39
2022/08/16 00:55:23;;;;;;;44.60;3.80;;;;;;;26.05;58.92;98620.06;7312602;19;129195;-36
2022/08/16 00:57:52;;;;;;;16.90;1.73;;;;;;;26.07;58.14;98611.97;7313786;19;129795;-38
2022/08/16 01:00:17;;;;;;;16.55;1.55;;;;;;;26.08;58.07;98613.63;7314283;19;128920;-37
2022/08/16 01:02:43;;;;;;;20.47;2.03;;;;;;;25.76;55.01;98606.25;7312939;19;128928;-38
2022/08/16 01:05:08;;;;;;;40.10;3.43;;;;;;;25.63;54.26;98610.38;7313178;19;131451;-37
2022/08/16 01:07:34;;;;;;;19.33;1.73;;;;;;;25.73;56.04;98596.91;7313441;19;129247;-40
2022/08/16 01:10:00;;;;;;;2.73;0.43;;;;;;;25.89;58.13;98607.16;7314082;19;129548;-38
2022/08/16 01:12:26;;;;;;;14.70;1.63;;;;;;;25.94;57.73;98602.16;7312587;19;129420;-37
2022/08/16 01:14:55;;;;;;;40.33;3.43;;;;;;;26.00;58.63;98604.00;7310704;19;130843;-39
2022/08/16 01:17:21;;;;;;;18.75;1.92;;;;;;;26.01;57.65;98610.94;7310647;19;129185;-38
2022/08/16 01:19:57;;;;;;;15.70;1.60;;;;;;;26.05;59.46;98616.66;7309759;19;129026;-39
2022/08/16 01:22:45;;;;;;;10.90;1.23;;;;;;;26.06;58.14;98613.81;7311595;19;128931;-39
2022/08/16 01:25:20;;;;;;;11.32;1.30;;;;;;;26.06;59.25;98628.81;7312757;19;129484;-37
2022/08/16 01:27:51;;;;;;;20.45;2.13;;;;;;;26.06;58.52;98627.00;7311422;19;129312;-38
2022/08/16 01:30:39;;;;;;;25.00;2.28;;;;;;;26.05;58.54;98625.34;7312653;19;129243;-37
2022/08/16 01:33:06;;;;;;;25.23;2.40;;;;;;;26.06;58.10;98624.38;7311324;19;129092;-38
2022/08/16 01:35:40;;;;;;;19.23;1.83;;;;;;;26.07;59.98;98631.25;7312777;19;130056;-38
2022/08/16 01:38:25;;;;;;;19.85;2.13;;;;;;;26.07;60.15;98625.97;7312523;19;129824;-37
2022/08/16 01:40:55;;;;;;;14.15;1.58;;;;;;;26.07;57.70;98618.06;7312086;19;129317;-39
2022/08/16 01:43:22;;;;;;;20.27;2.00;;;;;;;26.05;58.18;98620.06;7309621;19;129841;-36
2022/08/16 01:45:55;;;;;;;19.60;1.85;;;;;;;26.06;59.41;98619.09;7311280;19;130052;-37
2022/08/16 01:48:24;;;;;;;40.70;3.60;;;;;;;26.07;58.95;98628.59;7311996;19;129357;-39
2022/08/16 01:50:51;;;;;;;12.43;1.48;;;;;;;25.74;54.49;98635.41;7312052;19;128749;-38
2022/08/16 01:53:16;;;;;;;16.95;1.83;;;;;;;25.64;54.21;98634.91;7310081;19;129500;-38
2022/08/16 01:55:44;;;;;;;4.63;0.67;;;;;;;25.79;56.50;98638.28;7310548;19;129600;-37
2022/08/16 01:58:10;;;;;;;37.40;3.30;;;;;;;25.90;57.58;98639.59;7311538;19;130513;-39
2022/08/16 02:00:35;;;;;;;15.38;1.55;;;;;;;25.97;58.19;98635.19;7311612;19;128992;-39
2022/08/16 02:03:01;;;;;;;12.10;1.43;;;;;;;26.01;58.26;98624.13;7309438;19;129060;-37
2022/08/16 02:05:26;;;;;;;17.67;1.80;;;;;;;26.04;58.66;98626.38;7310517;19;130082;-38
2022/08/16 02:07:52;;;;;;;25.77;2.30;;;;;;;26.04;58.14;98618.47;7310728;19;129661;-39
2022/08/16 02:10:18;;;;;;;20.63;2.00;;;;;;;26.04;57.35;98626.38;7311526;19;129047;-37
2022/08/16 02:12:43;;;;;;;14.73;1.50;;;;;;;26.06;58.40;98628.81;7309913;19;129026;-37
2022/08/16 02:15:10;;;;;;;24.57;2.17;;;;;;;26.05;57.88;98627.97;7310183;19;129990;-38
2022/08/16 02:17:35;;;;;;;21.00;2.13;;;;;;;26.05;58.17;98622.72;7307770;19;129564;-42
2022/08/16 02:20:01;;;;;;;17.10;1.70;;;;;;;26.05;58.71;98620.06;7311639;19;128752;-37
2022/08/16 02:22:27;;;;;;;15.53;1.53;;;;;;;26.00;58.67;98609.28;7309582;19;128813;-39
2022/08/16 02:24:53;;;;;;;26.33;2.40;;;;;;;26.07;58.47;98612.81;7307814;19;129209;-39
2022/08/16 02:27:18;;;;;;;29.30;2.60;;;;;;;26.07;58.68;98615.44;7310473;19;129363;-40
2022/08/16 02:29:44;;;;;;;16.40;1.70;;;;;;;26.07;58.70;98617.25;7311319;19;128906;-36
2022/08/16 02:32:15;;;;;;;17.17;1.97;;;;;;;26.06;58.48;98610.38;7315278;19;129213;-39
2022/08/16 02:34:41;;;;;;;7.10;0.88;;;;;;;26.06;59.17;98608.56;7315209;19;130026;-38
2022/08/16 02:37:06;;;;;;;34.67;3.07;;;;;;;25.93;55.80;98615.50;7316533;19;130354;-38
2022/08/16 02:39:31;;;;;;;5.47;0.90;;;;;;;25.63;53.93;98617.50;7318537;19;128963;-38
2022/08/16 02:41:57;;;;;;;16.60;1.67;;;;;;;25.71;54.96;98622.63;7316612;19;130743;-38
2022/08/16 02:44:23;;;;;;;33.37;2.97;;;;;;;25.86;57.59;98618.09;7315481;19;129062;-40
2022/08/16 02:46:48;;;;;;;22.90;2.42;;;;;;;25.94;57.88;98615.31;7317137;19;129335;-39
2022/08/16 02:49:15;;;;;;;5.47;0.83;;;;;;;26.00;58.85;98617.16;7318275;19;128739;-38
2022/08/16 02:51:41;;;;;;;17.57;1.70;;;;;;;26.03;58.71;98616.81;7316703;19;129232;-37
2022/08/16 02:54:08;;;;;;;36.35;3.03;;;;;;;26.02;57.66;98628.38;7314129;19;130020;-38
2022/08/16 02:56:34;;;;;;;25.05;2.38;;;;;;;26.03;58.03;98629.97;7315957;19;130923;-38
2022/08/16 02:59:00;;;;;;;17.63;1.65;;;;;;;26.04;57.79;98621.09;7316655;19;129679;-38
2022/08/16 03:01:29;;;;;;;27.47;2.70;;;;;;;26.03;57.93;98629.97;7315794;19;129663;-37
2022/08/16 03:03:55;;;;;;;32.55;2.88;;;;;;;26.03;58.04;98627.34;7314078;19;129379;-37
2022/08/16 03:06:22;;;;;;;21.50;2.17;;;;;;;26.03;58.23;98632.63;7317124;19;129559;-39
2022/08/16 03:08:48;;;;;;;14.15;1.50;;;;;;;26.03;58.16;98624.72;7315801;19;128874;-38
2022/08/16 03:11:17;;;;;;;17.40;1.90;;;;;;;26.04;58.37;98628.19;7316827;19;129091;-37
2022/08/16 03:13:44;;;;;;;32.75;2.85;;;;;;;26.05;58.50;98633.25;7313702;19;129786;-38
2022/08/16 03:16:11;;;;;;;26.83;2.50;;;;;;;26.06;58.48;98628.81;7316241;19;130418;-40
2022/08/16 03:18:37;;;;;;;15.93;1.80;;;;;;;26.06;58.78;98639.34;7316498;19;129018;-39
2022/08/16 03:21:02;;;;;;;9.30;1.17;;;;;;;26.07;58.07;98646.22;7316416;19;128821;-38
2022/08/16 03:23:28;;;;;;;31.90;2.70;;;;;;;26.04;58.00;98644.81;7313930;19;129803;-38
2022/08/16 03:25:53;;;;;;;25.43;2.33;;;;;;;25.61;54.19;98649.28;7316634;19;129358;-38
2022/08/16 03:28:19;;;;;;;26.73;2.30;;;;;;;25.62;53.97;98655.31;7316353;19;129492;-37
2022/08/16 03:30:46;;;;;;;8.57;1.20;;;;;;;25.83;56.62;98652.72;7316319;19;129151;-38
2022/08/16 03:33:11;;;;;;;45.22;4.05;;;;;;;25.93;57.53;98655.84;7313485;19;129628;-37
2022/08/16 03:35:38;;;;;;;24.60;2.17;;;;;;;25.97;58.13;98654.44;7314149;19;129760;-39
2022/08/16 03:38:05;;;;;;;4.18;0.70;;;;;;;26.00;58.39;98648.78;7313570;19;129054;-37
2022/08/16 03:40:33;;;;;;;17.45;1.80;;;;;;;26.03;58.23;98656.31;7315783;19;129453;-38
2022/08/16 03:42:58;;;;;;;42.60;3.60;;;;;;;26.04;57.79;98662.41;7311207;19;129866;-39
2022/08/16 03:45:25;;;;;;;23.47;2.17;;;;;;;26.06;58.42;98666.50;7315212;19;129354;-38
2022/08/16 03:47:51;;;;;;;14.32;1.63;;;;;;;26.05;58.42;98658.81;7315048;19;129274;-40
2022/08/16 03:50:16;;;;;;;3.50;0.70;;;;;;;26.05;57.86;98659.59;7314829;19;129095;-38
2022/08/16 03:52:42;;;;;;;46.30;4.03;;;;;;;26.07;58.83;98657.59;7314084;19;130149;-37
2022/08/16 03:55:09;;;;;;;19.87;1.97;;;;;;;26.00;58.37;98645.34;7315273;19;129932;-38
2022/08/16 03:57:35;;;;;;;21.02;2.13;;;;;;;26.06;58.31;98655.97;7312667;19;128948;-40
2022/08/16 04:00:00;;;;;;;17.63;1.77;;;;;;;26.06;58.66;98653.34;7312300;19;129624;-36
2022/08/16 04:02:27;;;;;;;41.53;3.43;;;;;;;26.00;58.51;98646.16;7311445;19;129463;-38
2022/08/16 04:04:55;;;;;;;20.40;2.05;;;;;;;26.07;58.84;98668.13;7312541;19;130885;-38
2022/08/16 04:07:21;;;;;;;16.17;1.73;;;;;;;26.06;58.23;98677.03;7315253;19;129112;-39
2022/08/16 04:09:46;;;;;;;16.67;1.63;;;;;;;26.06;59.06;98674.41;7315096;19;128920;-37
2022/08/16 04:12:12;;;;;;;42.93;3.67;;;;;;;26.08;59.04;98669.75;7313711;19;129345;-38
2022/08/16 04:14:37;;;;;;;14.40;1.70;;;;;;;25.64;54.55;98682.28;7313011;19;129270;-39
2022/08/16 04:17:03;;;;;;;17.43;1.77;;;;;;;25.65;54.52;98678.69;7313641;19;129122;-40
2022/08/16 04:19:29;;;;;;;8.97;1.20;;;;;;;25.84;57.21;98683.28;7314680;19;129170;-37
2022/08/16 04:21:54;;;;;;;42.10;3.47;;;;;;;25.85;57.90;98673.59;7313847;19;129350;-39
2022/08/16 04:24:20;;;;;;;17.03;1.83;;;;;;;25.99;58.31;98686.69;7313217;19;129400;-38
2022/08/16 04:26:46;;;;;;;18.15;2.08;;;;;;;25.97;57.49;98680.78;7314643;19;129038;-38
2022/08/16 04:29:14;;;;;;;15.90;1.52;;;;;;;26.03;57.64;98693.22;7314624;19;129396;-38
2022/08/16 04:31:39;;;;;;;53.63;4.90;;;;;;;26.05;57.21;98701.75;7313042;19;130233;-39
2022/08/16 04:34:05;;;;;;;15.20;1.50;;;;;;;26.03;57.49;98698.47;7312339;19;129359;-39
2022/08/16 04:36:31;;;;;;;16.30;1.67;;;;;;;26.06;57.92;98705.19;7312799;19;129093;-37
2022/08/16 04:38:56;;;;;;;20.33;2.00;;;;;;;25.99;57.93;98697.22;7313857;19;129073;-38
2022/08/16 04:41:22;;;;;;;31.47;2.87;;;;;;;26.07;58.73;98720.00;7313394;19;130050;-37
2022/08/16 04:43:50;;;;;;;14.73;1.60;;;;;;;26.05;58.51;98712.28;7311958;19;129399;-38
2022/08/16 04:46:15;;;;;;;14.23;1.48;;;;;;;26.07;59.09;98714.72;7313074;19;128937;-38
2022/08/16 04:48:42;;;;;;;26.90;2.53;;;;;;;26.01;58.28;98710.19;7312935;19;128877;-37
2022/08/16 04:51:09;;;;;;;29.88;2.75;;;;;;;26.05;58.40;98720.19;7313871;19;130017;-38
2022/08/16 04:53:35;;;;;;;20.85;2.10;;;;;;;26.05;58.41;98722.81;7310889;19;129334;-38
2022/08/16 04:56:00;;;;;;;20.60;2.13;;;;;;;26.05;59.05;98722.81;7312618;19;129070;-40
2022/08/16 04:58:26;;;;;;;30.57;2.90;;;;;;;25.99;58.64;98718.28;7312837;19;129811;-37
2022/08/16 05:00:52;;;;;;;30.20;2.83;;;;;;;25.89;55.99;98723.06;7313206;19;129066;-38
2022/08/16 05:03:17;;;;;;;14.50;1.70;;;;;;;25.55;54.26;98712.38;7311525;19;129365;-38
2022/08/16 05:05:43;;;;;;;17.33;1.73;;;;;;;25.70;55.61;98728.94;7313128;19;129164;-38
2022/08/16 05:08:09;;;;;;;31.27;2.70;;;;;;;25.86;57.63;98733.97;7313208;19;129231;-38
2022/08/16 05:10:35;;;;;;;30.63;3.03;;;;;;;25.87;58.14;98726.84;7313096;19;129106;-39
2022/08/16 05:13:03;;;;;;;19.58;2.05;;;;;;;25.99;58.76;98739.34;7311516;19;130900;-38
2022/08/16 05:15:29;;;;;;;16.77;1.70;;;;;;;26.01;57.93;98745.28;7313009;19;130152;-38
2022/08/16 05:17:55;;;;;;;30.73;2.77;;;;;;;26.02;58.75;98744.28;7310758;19;129123;-37
2022/08/16 05:20:21;;;;;;;21.13;2.08;;;;;;;26.02;58.20;98738.19;7313808;19;130165;-40
2022/08/16 05:22:46;;;;;;;10.47;1.33;;;;;;;26.04;58.04;98747.53;7311950;19;129672;-37
2022/08/16 05:25:12;;;;;;;17.63;2.03;;;;;;;26.04;58.40;98747.53;7312588;19;129384;-38
2022/08/16 05:27:40;;;;;;;28.55;2.67;;;;;;;26.03;57.37;98750.38;7312552;19;129185;-39
2022/08/16 05:30:07;;;;;;;9.60;1.20;;;;;;;26.04;57.61;98752.81;7313007;19;129703;-38
2022/08/16 05:32:33;;;;;;;15.52;1.70;;;;;;;26.05;58.07;98745.72;7311236;19;129297;-39
2022/08/16 05:34:59;;;;;;;;;;;;;;;26.12;60.27;98750.03;7309541;19;129204;-38
2022/08/16 05:37:24;;;;;;;36.40;3.20;;;;;;;26.03;58.55;98745.91;7310359;19;129470;-36
2022/08/16 05:39:50;;;;;;;25.20;2.47;;;;;;;26.06;58.42;98748.19;7313046;19;129805;-38
2022/08/16 05:42:15;;;;;;;15.10;1.43;;;;;;;26.06;58.31;98755.25;7311031;19;129408;-38
2022/08/16 05:44:41;;;;;;;15.87;1.77;;;;;;;26.05;58.38;98749.16;7309148;19;128889;-37
2022/08/16 05:47:06;;;;;;;39.43;3.47;;;;;;;26.05;59.32;98754.44;7311584;19;129650;-36
2022/08/16 05:49:32;;;;;;;14.13;1.60;;;;;;;26.03;56.90;98751.16;7312287;19;129018;-38
2022/08/16 05:51:58;;;;;;;16.13;1.87;;;;;;;25.63;54.17;98754.38;7311627;19;130432;-37
2022/08/16 05:54:24;;;;;;;;;;;;;;;25.70;57.02;98755.28;7309113;19;128990;-40
2022/08/16 05:56:49;;;;;;;43.67;3.60;;;;;;;25.85;56.98;98763.13;7310206;19;129351;-40
2022/08/16 05:59:17;;;;;;;19.23;2.20;;;;;;;25.93;58.09;98750.66;7312012;19;129750;-39
2022/08/16 06:01:45;;;;;;;24.42;2.55;;;;;;;25.91;57.48;98752.66;7310383;19;129744;-38
2022/08/16 06:04:12;;;;;;;13.80;1.55;;;;;;;25.92;58.52;98745.53;7309224;19;129361;-38
2022/08/16 06:06:39;;;;;;;40.72;3.45;;;;;;;25.94;58.18;98746.19;7315248;19;129172;-39
2022/08/16 06:09:04;;;;;;;15.73;1.83;;;;;;;26.00;57.81;98762.03;7318817;19;129037;-38
2022/08/16 06:11:29;;;;;;;17.93;1.77;;;;;;;26.01;58.38;98754.97;7317168;19;129361;-38
2022/08/16 06:13:55;;;;;;;14.40;1.60;;;;;;;26.01;58.31;98762.88;7316636;19;128891;-38
2022/08/16 06:16:21;;;;;;;32.50;2.70;;;;;;;25.93;58.22;98745.38;7317394;19;128821;-40
2022/08/16 06:18:46;;;;;;;18.50;1.97;;;;;;;26.02;58.42;98759.25;7318415;19;129364;-39
2022/08/16 06:21:12;;;;;;;4.70;0.87;;;;;;;26.02;58.72;98761.88;7317397;19;129761;-38
2022/08/16 06:23:38;;;;;;;24.23;2.47;;;;;;;26.03;59.21;98768.81;7315816;19;129438;-37
2022/08/16 06:26:05;;;;;;;33.20;2.93;;;;;;;26.01;59.42;98769.00;7318102;19;129131;-38
2022/08/16 06:28:31;;;;;;;15.15;1.58;;;;;;;26.00;57.97;98772.59;7318018;19;130608;-39
2022/08/16 06:30:56;;;;;;;14.10;1.63;;;;;;;26.02;58.75;98773.25;7317274;19;129599;-40
2022/08/16 06:33:22;;;;;;;17.33;1.90;;;;;;;26.03;58.18;98772.25;7316180;19;129019;-37
2022/08/16 06:35:48;;;;;;;35.10;3.13;;;;;;;26.04;58.86;98768.63;7318050;19;128914;-38
2022/08/16 06:38:13;;;;;;;11.17;1.40;;;;;;;25.73;55.45;98775.97;7315731;19;129924;-39
2022/08/16 06:40:39;;;;;;;15.47;1.53;;;;;;;25.57;54.11;98763.00;7317147;19;129917;-40
2022/08/16 06:43:04;;;;;;;19.33;1.93;;;;;;;25.77;56.68;98771.94;7316070;19;128891;-37
2022/08/16 06:45:29;;;;;;;25.37;2.33;;;;;;;25.88;58.00;98776.75;7318189;19;129284;-37
2022/08/16 06:47:55;;;;;;;16.50;1.70;;;;;;;25.95;58.08;98772.34;7317872;19;130724;-39
2022/08/16 06:50:21;;;;;;;16.83;1.70;;;;;;;26.00;58.19;98767.31;7317227;19;130332;-36
2022/08/16 06:52:46;;;;;;;44.90;3.83;;;;;;;26.02;58.19;98769.78;7316434;19;130296;-37
2022/08/16 06:55:14;;;;;;;18.43;1.83;;;;;;;26.02;58.28;98778.53;7317728;19;128765;-38
2022/08/16 06:57:40;;;;;;;18.88;2.00;;;;;;;26.01;57.89;98784.81;7314713;19;129432;-37
2022/08/16 07:00:12;;;;;;;12.33;1.43;;;;;;;25.99;58.40;98784.13;7315979;19;131198;-38
2022/08/16 07:02:39;;;;;;;28.33;2.60;;;;;;;25.94;57.85;98788.31;7315192;19;129182;-41
2022/08/16 07:05:06;;;;;;;29.35;2.63;;;;;;;26.01;57.89;98795.34;7313835;19;129062;-38
2022/08/16 07:07:32;;;;;;;18.08;1.92;;;;;;;26.02;58.50;98807.50;7316101;19;129286;-39
2022/08/16 07:09:57;;;;;;;8.45;1.08;;;;;;;25.95;58.07;98796.03;7316557;19;129730;-39
2022/08/16 07:12:23;;;;;;;32.30;2.77;;;;;;;26.01;58.97;98808.50;7315565;19;129408;-37
2022/08/16 07:14:48;;;;;;;23.70;2.23;;;;;;;26.02;58.88;98801.41;7314621;19;129483;-38
2022/08/16 07:17:17;;;;;;;7.60;1.00;;;;;;;26.02;58.56;98804.88;7312406;19;129635;-39
2022/08/16 07:19:42;;;;;;;13.98;1.70;;;;;;;26.04;58.74;98808.13;7315476;19;130491;-39
2022/08/16 07:22:07;;;;;;;30.67;2.73;;;;;;;26.03;58.89;98809.13;7316352;19;129228;-37
2022/08/16 07:24:33;;;;;;;19.97;1.97;;;;;;;26.02;57.05;98812.75;7314456;19;128909;-38
2022/08/16 07:26:59;;;;;;;17.87;1.77;;;;;;;25.62;54.63;98806.22;7316615;19;129583;-38
2022/08/16 07:29:24;;;;;;;16.33;1.60;;;;;;;25.70;54.85;98813.22;7315808;19;129630;-39
2022/08/16 07:31:50;;;;;;;38.60;3.20;;;;;;;25.84;57.38;98825.50;7315722;19;128910;-40
2022/08/16 07:34:15;;;;;;;12.87;1.50;;;;;;;25.83;57.68;98809.88;7314154;19;129035;-40
2022/08/16 07:36:41;;;;;;;15.97;1.60;;;;;;;25.97;58.18;98819.56;7315270;19;129230;-38
2022/08/16 07:39:07;;;;;;;16.03;1.73;;;;;;;26.00;58.54;98827.09;7314911;19;129452;-39
2022/08/16 07:41:35;;;;;;;25.95;2.50;;;;;;;26.01;57.99;98826.94;7315279;19;129188;-40
2022/08/16 07:44:00;;;;;;;16.70;1.70;;;;;;;26.03;57.61;98830.19;7314870;19;129440;-40
2022/08/16 07:46:26;;;;;;;15.23;1.60;;;;;;;26.02;58.11;98828.56;7315414;19;129358;-40
2022/08/16 07:48:51;;;;;;;19.10;1.93;;;;;;;26.03;58.28;98834.66;7314977;19;130602;-40
2022/08/16 07:51:16;;;;;;;40.37;3.50;;;;;;;26.03;58.26;98837.31;7315102;19;129050;-37
2022/08/16 07:53:43;;;;;;;12.90;1.43;;;;;;;25.95;57.85;98827.66;7313242;19;129176;-39
2022/08/16 07:56:09;;;;;;;16.02;1.58;;;;;;;26.03;58.68;98840.72;7314969;19;129448;-39
2022/08/16 07:58:35;;;;;;;17.73;1.80;;;;;;;26.02;57.71;98836.47;7312839;19;129641;-39
2022/08/16 08:01:04;;;;;;;38.63;3.33;;;;;;;26.02;58.22;98833.00;7314877;19;129088;-38
2022/08/16 08:03:29;;;;;;;18.63;1.92;;;;;;;26.03;58.23;98835.47;7313877;19;129193;-39
2022/08/16 08:05:54;;;;;;;23.80;2.40;;;;;;;26.01;59.37;98842.75;7314600;19;131056;-40
2022/08/16 08:08:20;;;;;;;22.17;2.20;;;;;;;26.03;58.08;98840.72;7313685;19;129141;-39
2022/08/16 08:10:45;;;;;;;25.10;2.33;;;;;;;26.03;58.78;98843.38;7314724;19;128954;-38
2022/08/16 08:13:11;;;;;;;14.90;1.47;;;;;;;25.79;55.01;98837.59;7314013;19;128900;-40
2022/08/16 08:15:36;;;;;;;13.97;1.47;;;;;;;25.59;54.10;98837.34;7314007;19;130862;-41
2022/08/16 08:18:01;;;;;;;25.30;2.47;;;;;;;25.72;55.85;98839.34;7311488;19;129267;-40
2022/08/16 08:20:27;;;;;;;24.90;2.10;;;;;;;25.86;57.68;98834.03;7314624;19;128878;-39
2022/08/16 08:22:55;;;;;;;15.40;1.70;;;;;;;25.93;58.08;98840.22;7313007;19;128825;-39
2022/08/16 08:25:21;;;;;;;15.80;1.67;;;;;;;25.98;57.86;98842.28;7313796;19;130105;-40
2022/08/16 08:27:46;;;;;;;28.90;2.63;;;;;;;26.03;57.14;98839.94;7313934;19;129184;-40
2022/08/16 08:30:13;;;;;;;26.77;2.33;;;;;;;26.02;58.61;98849.66;7313486;19;128949;-39
2022/08/16 08:32:38;;;;;;;;;;;;;;;26.09;59.56;98849.72;7314696;19;129779;-39
2022/08/16 08:35:05;;;;;;;8.98;1.17;;;;;;;26.03;58.59;98846.00;7311082;19;129086;-38
2022/08/16 08:37:31;;;;;;;;;;;;;;;26.09;59.50;98853.19;7313038;19;130320;-39
2022/08/16 08:39:57;;;;;;;24.10;2.08;;;;;;;26.02;58.28;98848.81;7314826;19;128833;-39
2022/08/16 08:42:22;;;;;;;11.80;1.30;;;;;;;26.03;58.91;98851.25;7313643;19;128981;-38
2022/08/16 08:44:47;;;;;;;15.90;1.53;;;;;;;26.01;58.96;98850.66;7311245;19;129636;-41
2022/08/16 08:47:13;;;;;;;43.63;3.83;;;;;;;26.01;59.02;98853.28;7313380;19;130336;-39
2022/08/16 08:49:38;;;;;;;5.90;0.80;;;;;;;26.01;58.14;98848.03;7315067;19;129028;-38
2022/08/16 08:52:04;;;;;;;17.70;1.73;;;;;;;26.04;58.17;98847.66;7313650;19;130601;-40
2022/08/16 08:54:31;;;;;;;13.20;1.30;;;;;;;26.03;59.55;98851.25;7311356;19;129423;-40
2022/08/16 08:56:57;;;;;;;32.97;2.78;;;;;;;26.02;58.80;98847.00;7313489;19;129553;-39
2022/08/16 08:59:22;;;;;;;16.73;1.77;;;;;;;26.02;58.68;98849.66;7314374;19;129128;-39
2022/08/16 09:01:49;;;;;;;19.43;2.03;;;;;;;25.63;54.04;98844.69;7313053;19;129174;-40
2022/08/16 09:04:15;;;;;;;16.05;1.70;;;;;;;25.60;53.39;98844.25;7311063;19;129191;-39
2022/08/16 09:06:41;;;;;;;37.93;3.33;;;;;;;25.81;57.33;98849.59;7312668;19;130197;-40
2022/08/16 09:09:08;;;;;;;16.77;1.73;;;;;;;25.89;57.78;98854.75;7313321;19;129080;-39
2022/08/16 09:11:35;;;;;;;33.13;3.28;;;;;;;25.95;58.23;98855.81;7312444;19;129408;-41
2022/08/16 09:14:04;;;;;;;15.80;1.55;;;;;;;25.99;58.21;98854.44;7309159;19;129452;-40
2022/08/16 09:16:31;;;;;;;44.55;3.88;;;;;;;26.02;58.28;98848.81;7312515;19;130399;-38
2022/08/16 09:18:57;;;;;;;17.52;1.67;;;;;;;26.02;58.13;98848.81;7310882;19;128848;-39
2022/08/16 09:21:23;;;;;;;15.13;1.53;;;;;;;26.03;58.32;98851.25;7312373;19;129635;-38
2022/08/16 09:23:49;;;;;;;6.57;1.00;;;;;;;26.03;57.80;98851.25;7310080;19;129284;-41
2022/08/16 09:26:14;;;;;;;33.97;2.90;;;;;;;26.02;57.65;98852.28;7312399;19;129386;-40
2022/08/16 09:28:41;;;;;;;16.27;1.77;;;;;;;26.01;58.06;98853.28;7313639;19;128943;-40
2022/08/16 09:31:06;;;;;;;7.88;1.20;;;;;;;26.01;59.02;98853.28;7312145;19;128852;-39
2022/08/16 09:33:31;;;;;;;4.50;0.73;;;;;;;25.94;57.71;98849.72;7310537;19;130208;-40
2022/08/16 09:35:57;;;;;;;35.00;2.90;;;;;;;26.01;58.02;98842.75;7312964;19;130346;-39
2022/08/16 09:38:23;;;;;;;14.53;1.57;;;;;;;26.02;58.33;98849.66;7310582;19;129670;-40
2022/08/16 09:40:49;;;;;;;16.65;1.73;;;;;;;26.02;58.54;98848.81;7309756;19;128808;-40
2022/08/16 09:43:17;;;;;;;22.57;2.10;;;;;;;25.96;58.72;98829.28;7310774;19;129478;-39
2022/08/16 09:45:43;;;;;;;29.48;2.78;;;;;;;26.02;58.75;98840.91;7312612;19;129657;-39
2022/08/16 09:48:10;;;;;;;15.53;1.63;;;;;;;25.78;54.81;98836.78;7313348;19;128751;-40
2022/08/16 09:50:37;;;;;;;15.27;1.48;;;;;;;25.61;53.93;98844.06;7312213;19;129040;-39
2022/08/16 09:53:05;;;;;;;20.63;1.83;;;;;;;25.75;57.24;98831.06;7310453;19;129332;-39
2022/08/16 09:55:30;;;;;;;36.63;2.97;;;;;;;25.86;58.02;98841.94;7311817;19;130319;-39
2022/08/16 09:57:56;;;;;;;5.57;0.80;;;;;;;25.93;57.89;98837.56;7310556;19;128791;-39
2022/08/16 10:00:25;;;;;;;16.27;1.60;;;;;;;25.96;57.64;98837.19;7311169;19;129673;-38
2022/08/16 10:02:51;;;;;;;10.00;1.08;;;;;;;25.99;57.75;98839.47;7309701;19;129326;-39
2022/08/16 10:05:18;;;;;;;37.85;3.05;;;;;;;25.98;57.74;98840.44;7311923;19;130663;-38
2022/08/16 10:07:45;;;;;;;17.23;1.83;;;;;;;26.00;58.34;98835.81;7311701;19;128893;-39
2022/08/16 10:10:12;;;;;;;16.23;1.67;;;;;;;26.00;58.66;98835.81;7311482;19;129742;-39
2022/08/16 10:15:21;;;;;;;24.65;2.30;;;;;;;26.00;58.13;98841.06;7311089;19;129090;-39
2022/08/16 10:17:53;;;;;;;36.77;3.23;;;;;;;25.94;58.99;98825.19;7311244;19;128928;-40
2022/08/16 10:20:19;;;;;;;17.65;1.67;;;;;;;26.01;58.91;98842.75;7312208;19;129294;-39
2022/08/16 10:22:45;;;;;;;27.85;2.80;;;;;;;26.01;58.91;98836.63;7310406;19;130153;-39
2022/08/16 10:25:12;;;;;;;18.90;1.97;;;;;;;26.02;58.98;98835.66;7311028;19;130360;-38
2022/08/16 10:27:37;;;;;;;39.05;3.35;;;;;;;26.00;58.81;98833.16;7310378;19;129003;-38
2022/08/16 10:30:05;;;;;;;14.63;1.50;;;;;;;26.01;58.99;98829.59;7311157;19;129539;-40
2022/08/16 10:32:31;;;;;;;20.02;2.05;;;;;;;25.98;58.73;98827.28;7309781;19;130189;-38
2022/08/16 10:34:57;;;;;;;16.73;1.73;;;;;;;26.02;58.43;98827.75;7307624;19;129699;-39
2022/08/16 10:37:22;;;;;;;35.53;2.97;;;;;;;25.64;54.30;98824.44;7310215;19;129351;-40
2022/08/16 10:39:48;;;;;;;17.70;1.87;;;;;;;25.62;54.10;98826.44;7310460;19;128907;-40
2022/08/16 10:42:13;;;;;;;7.27;1.00;;;;;;;25.80;57.21;98821.59;7309203;19;129011;-38
2022/08/16 10:44:39;;;;;;;23.73;2.17;;;;;;;25.89;57.47;98822.31;7307270;19;130152;-41
2022/08/16 10:47:04;;;;;;;31.40;2.57;;;;;;;25.86;58.11;98812.97;7310319;19;129359;-38
2022/08/16 10:49:30;;;;;;;16.07;1.50;;;;;;;25.98;58.08;98827.28;7310015;19;129280;-39
2022/08/16 10:51:55;;;;;;;15.07;1.60;;;;;;;26.00;57.34;98820.00;7310543;19;129865;-37
2022/08/16 10:54:21;;;;;;;38.03;3.17;;;;;;;26.00;57.38;98822.63;7314074;19;130168;-41
2022/08/16 10:56:47;;;;;;;24.37;2.17;;;;;;;26.00;57.83;98820.00;7317478;19;128914;-39
2022/08/16 10:59:13;;;;;;;17.80;1.70;;;;;;;26.01;58.28;98826.09;7314315;19;129845;-41
2022/08/16 11:01:38;;;;;;;34.83;3.47;;;;;;;26.02;58.62;98822.47;7316001;19;129995;-38
2022/08/16 11:04:05;;;;;;;34.63;2.93;;;;;;;25.94;58.52;98826.03;7314279;19;131175;-38
2022/08/16 11:06:31;;;;;;;16.52;1.65;;;;;;;25.95;58.64;98827.66;7316829;19;128836;-39
2022/08/16 11:08:57;;;;;;;20.90;2.13;;;;;;;26.00;58.70;98830.53;7316657;19;129189;-39
2022/08/16 11:11:22;;;;;;;16.50;1.70;;;;;;;26.00;58.02;98827.91;7316542;19;129319;-36
2022/08/16 11:13:51;;;;;;;39.60;3.30;;;;;;;26.00;58.30;98825.28;7313898;19;129252;-39
2022/08/16 11:16:16;;;;;;;16.25;1.65;;;;;;;25.99;59.13;98823.66;7317151;19;128917;-40
2022/08/16 11:18:42;;;;;;;15.83;1.57;;;;;;;26.02;58.59;98825.09;7315254;19;129298;-41